sensor_id;sensor_type;location;lat;lon;timestamp;P1;durP1;ratioP1;P2;durP2;ratioP2
35981;SDS011;22058;0.000;0.000;2023-06-26T00:02:23;2.97;;;2.88;;
35981;SDS011;22058;0.000;0.000;2023-06-26T00:04:49;3.15;;;2.95;;
35981;SDS011;22058;0.000;0.000;2023-06-26T00:07:19;3.45;;;3.25;;
35981;SDS011;22058;0.000;0.000;2023-06-26T00:09:45;2.70;;;2.58;;
35981;SDS011;22058;0.000;0.000;2023-06-26T00:12:11;3.10;;;2.90;;
35981;SDS011;22058;0.000;0.000;2023-06-26T00:14:37;3.28;;;3.08;;
35981;SDS011;22058;0.000;0.000;2023-06-26T00:17:03;3.08;;;2.88;;
35981;SDS011;22058;0.000;0.000;2023-06-26T00:19:30;2.90;;;2.80;;
35981;SDS011;22058;0.000;0.000;2023-06-26T00:21:56;2.95;;;2.85;;
35981;SDS011;22058;0.000;0.000;2023-06-26T00:24:22;2.90;;;2.80;;
35981;SDS011;22058;0.000;0.000;2023-06-26T00:26:48;3.20;;;3.00;;
35981;SDS011;22058;0.000;0.000;2023-06-26T00:29:15;3.50;;;3.33;;
35981;SDS011;22058;0.000;0.000;2023-06-26T00:31:41;3.22;;;3.03;;
35981;SDS011;22058;0.000;0.000;2023-06-26T00:34:07;3.22;;;3.03;;
35981;SDS011;22058;0.000;0.000;2023-06-26T00:36:33;3.42;;;3.22;;
35981;SDS011;22058;0.000;0.000;2023-06-26T00:38:59;3.10;;;2.90;;
35981;SDS011;22058;0.000;0.000;2023-06-26T00:41:25;3.63;;;3.42;;
35981;SDS011;22058;0.000;0.000;2023-06-26T00:43:51;3.58;;;3.38;;
35981;SDS011;22058;0.000;0.000;2023-06-26T00:46:18;3.13;;;3.00;;
35981;SDS011;22058;0.000;0.000;2023-06-26T00:48:44;2.70;;;2.60;;
35981;SDS011;22058;0.000;0.000;2023-06-26T00:51:11;3.67;;;3.47;;
35981;SDS011;22058;0.000;0.000;2023-06-26T00:53:37;3.63;;;3.42;;
35981;SDS011;22058;0.000;0.000;2023-06-26T00:56:04;3.30;;;3.10;;
35981;SDS011;22058;0.000;0.000;2023-06-26T00:58:31;2.78;;;2.67;;
35981;SDS011;22058;0.000;0.000;2023-06-26T01:00:57;3.80;;;3.50;;
35981;SDS011;22058;0.000;0.000;2023-06-26T01:03:24;3.10;;;2.90;;
35981;SDS011;22058;0.000;0.000;2023-06-26T01:05:54;3.45;;;3.25;;
35981;SDS011;22058;0.000;0.000;2023-06-26T01:08:22;3.83;;;3.63;;
35981;SDS011;22058;0.000;0.000;2023-06-26T01:10:49;3.60;;;3.40;;
35981;SDS011;22058;0.000;0.000;2023-06-26T01:13:15;3.70;;;3.40;;
35981;SDS011;22058;0.000;0.000;2023-06-26T01:15:42;2.70;;;2.60;;
35981;SDS011;22058;0.000;0.000;2023-06-26T01:18:08;3.42;;;3.22;;
35981;SDS011;22058;0.000;0.000;2023-06-26T01:20:35;3.85;;;3.65;;
35981;SDS011;22058;0.000;0.000;2023-06-26T01:25:40;3.08;;;2.95;;
35981;SDS011;22058;0.000;0.000;2023-06-26T01:28:07;3.53;;;3.33;;
35981;SDS011;22058;0.000;0.000;2023-06-26T01:30:34;3.83;;;3.63;;
35981;SDS011;22058;0.000;0.000;2023-06-26T01:33:02;4.07;;;3.88;;
35981;SDS011;22058;0.000;0.000;2023-06-26T01:35:28;3.15;;;2.95;;
35981;SDS011;22058;0.000;0.000;2023-06-26T01:38:10;4.63;;;4.32;;
35981;SDS011;22058;0.000;0.000;2023-06-26T01:40:37;2.90;;;2.80;;
35981;SDS011;22058;0.000;0.000;2023-06-26T01:43:03;3.88;;;3.67;;
35981;SDS011;22058;0.000;0.000;2023-06-26T01:45:29;2.85;;;2.72;;
35981;SDS011;22058;0.000;0.000;2023-06-26T01:47:57;3.25;;;3.05;;
35981;SDS011;22058;0.000;0.000;2023-06-26T01:50:26;2.88;;;2.75;;
35981;SDS011;22058;0.000;0.000;2023-06-26T01:58:01;2.70;;;2.60;;
35981;SDS011;22058;0.000;0.000;2023-06-26T02:00:28;3.08;;;2.88;;
35981;SDS011;22058;0.000;0.000;2023-06-26T02:02:54;3.75;;;2.85;;
35981;SDS011;22058;0.000;0.000;2023-06-26T02:05:20;3.22;;;3.03;;
35981;SDS011;22058;0.000;0.000;2023-06-26T02:07:48;3.78;;;3.53;;
35981;SDS011;22058;0.000;0.000;2023-06-26T02:10:14;3.95;;;3.75;;
35981;SDS011;22058;0.000;0.000;2023-06-26T02:12:41;3.70;;;3.50;;
35981;SDS011;22058;0.000;0.000;2023-06-26T02:15:07;3.60;;;3.40;;
35981;SDS011;22058;0.000;0.000;2023-06-26T02:17:33;3.17;;;2.97;;
35981;SDS011;22058;0.000;0.000;2023-06-26T02:19:59;3.78;;;3.58;;
35981;SDS011;22058;0.000;0.000;2023-06-26T02:22:25;3.50;;;3.30;;
35981;SDS011;22058;0.000;0.000;2023-06-26T02:24:53;3.70;;;3.50;;
35981;SDS011;22058;0.000;0.000;2023-06-26T02:27:19;3.50;;;3.30;;
35981;SDS011;22058;0.000;0.000;2023-06-26T02:29:45;3.03;;;2.80;;
35981;SDS011;22058;0.000;0.000;2023-06-26T02:32:12;3.00;;;2.80;;
35981;SDS011;22058;0.000;0.000;2023-06-26T02:34:38;3.35;;;3.15;;
35981;SDS011;22058;0.000;0.000;2023-06-26T02:37:04;3.40;;;3.20;;
35981;SDS011;22058;0.000;0.000;2023-06-26T02:39:32;4.18;;;3.97;;
35981;SDS011;22058;0.000;0.000;2023-06-26T02:41:59;4.07;;;3.88;;
35981;SDS011;22058;0.000;0.000;2023-06-26T02:44:25;4.03;;;3.47;;
35981;SDS011;22058;0.000;0.000;2023-06-26T02:46:52;3.47;;;3.28;;
35981;SDS011;22058;0.000;0.000;2023-06-26T02:49:18;2.90;;;2.80;;
35981;SDS011;22058;0.000;0.000;2023-06-26T02:51:44;3.60;;;3.40;;
35981;SDS011;22058;0.000;0.000;2023-06-26T02:54:10;2.95;;;2.85;;
35981;SDS011;22058;0.000;0.000;2023-06-26T02:56:36;3.83;;;3.63;;
35981;SDS011;22058;0.000;0.000;2023-06-26T02:59:02;4.22;;;4.03;;
35981;SDS011;22058;0.000;0.000;2023-06-26T03:01:28;3.33;;;3.13;;
35981;SDS011;22058;0.000;0.000;2023-06-26T03:03:55;4.10;;;3.90;;
35981;SDS011;22058;0.000;0.000;2023-06-26T03:06:21;3.20;;;3.00;;
35981;SDS011;22058;0.000;0.000;2023-06-26T03:08:47;3.55;;;3.35;;
35981;SDS011;22058;0.000;0.000;2023-06-26T03:11:13;3.65;;;3.45;;
35981;SDS011;22058;0.000;0.000;2023-06-26T03:13:39;3.55;;;3.35;;
35981;SDS011;22058;0.000;0.000;2023-06-26T03:16:05;3.45;;;3.25;;
35981;SDS011;22058;0.000;0.000;2023-06-26T03:18:31;3.35;;;3.15;;
35981;SDS011;22058;0.000;0.000;2023-06-26T03:20:58;3.17;;;3.00;;
35981;SDS011;22058;0.000;0.000;2023-06-26T03:23:25;3.75;;;3.55;;
35981;SDS011;22058;0.000;0.000;2023-06-26T03:25:51;3.22;;;3.03;;
35981;SDS011;22058;0.000;0.000;2023-06-26T03:28:17;3.58;;;3.38;;
35981;SDS011;22058;0.000;0.000;2023-06-26T03:30:43;2.72;;;2.63;;
35981;SDS011;22058;0.000;0.000;2023-06-26T03:33:09;3.10;;;2.90;;
35981;SDS011;22058;0.000;0.000;2023-06-26T03:35:36;2.85;;;2.42;;
35981;SDS011;22058;0.000;0.000;2023-06-26T03:38:03;3.15;;;2.95;;
35981;SDS011;22058;0.000;0.000;2023-06-26T03:40:29;3.40;;;3.20;;
35981;SDS011;22058;0.000;0.000;2023-06-26T03:42:55;2.20;;;2.10;;
35981;SDS011;22058;0.000;0.000;2023-06-26T03:45:22;3.80;;;3.60;;
35981;SDS011;22058;0.000;0.000;2023-06-26T03:47:48;3.55;;;3.35;;
35981;SDS011;22058;0.000;0.000;2023-06-26T03:50:18;3.35;;;3.15;;
35981;SDS011;22058;0.000;0.000;2023-06-26T03:52:44;3.33;;;3.15;;
35981;SDS011;22058;0.000;0.000;2023-06-26T03:55:11;3.38;;;3.17;;
35981;SDS011;22058;0.000;0.000;2023-06-26T03:57:37;3.55;;;3.35;;
35981;SDS011;22058;0.000;0.000;2023-06-26T04:00:03;3.50;;;3.30;;
35981;SDS011;22058;0.000;0.000;2023-06-26T04:02:37;3.20;;;3.00;;
35981;SDS011;22058;0.000;0.000;2023-06-26T04:05:04;2.80;;;2.67;;
35981;SDS011;22058;0.000;0.000;2023-06-26T04:07:30;3.30;;;3.10;;
35981;SDS011;22058;0.000;0.000;2023-06-26T04:09:57;2.97;;;2.88;;
35981;SDS011;22058;0.000;0.000;2023-06-26T04:12:23;2.90;;;2.70;;
35981;SDS011;22058;0.000;0.000;2023-06-26T04:14:49;2.50;;;2.40;;
35981;SDS011;22058;0.000;0.000;2023-06-26T04:17:15;3.58;;;3.38;;
35981;SDS011;22058;0.000;0.000;2023-06-26T04:19:41;2.85;;;2.50;;
35981;SDS011;22058;0.000;0.000;2023-06-26T04:22:07;3.45;;;3.25;;
35981;SDS011;22058;0.000;0.000;2023-06-26T04:24:34;3.33;;;3.13;;
35981;SDS011;22058;0.000;0.000;2023-06-26T04:27:00;4.97;;;3.13;;
35981;SDS011;22058;0.000;0.000;2023-06-26T04:29:26;2.92;;;2.72;;
35981;SDS011;22058;0.000;0.000;2023-06-26T04:31:53;4.13;;;3.05;;
35981;SDS011;22058;0.000;0.000;2023-06-26T04:34:26;6.50;;;2.90;;
35981;SDS011;22058;0.000;0.000;2023-06-26T04:36:53;5.72;;;3.47;;
35981;SDS011;22058;0.000;0.000;2023-06-26T04:39:19;6.97;;;4.13;;
35981;SDS011;22058;0.000;0.000;2023-06-26T04:41:46;5.60;;;3.40;;
35981;SDS011;22058;0.000;0.000;2023-06-26T04:44:12;6.90;;;3.90;;
35981;SDS011;22058;0.000;0.000;2023-06-26T04:46:38;3.65;;;3.33;;
35981;SDS011;22058;0.000;0.000;2023-06-26T04:49:07;3.95;;;3.50;;
35981;SDS011;22058;0.000;0.000;2023-06-26T04:51:34;7.40;;;3.58;;
35981;SDS011;22058;0.000;0.000;2023-06-26T04:54:05;4.78;;;3.58;;
35981;SDS011;22058;0.000;0.000;2023-06-26T04:56:32;5.82;;;3.33;;
35981;SDS011;22058;0.000;0.000;2023-06-26T04:58:58;5.55;;;3.72;;
35981;SDS011;22058;0.000;0.000;2023-06-26T05:01:24;11.32;;;3.92;;
35981;SDS011;22058;0.000;0.000;2023-06-26T05:03:53;7.60;;;3.75;;
35981;SDS011;22058;0.000;0.000;2023-06-26T05:06:19;4.13;;;3.60;;
35981;SDS011;22058;0.000;0.000;2023-06-26T05:08:45;7.72;;;3.80;;
35981;SDS011;22058;0.000;0.000;2023-06-26T05:11:11;3.65;;;3.42;;
35981;SDS011;22058;0.000;0.000;2023-06-26T05:13:37;4.38;;;3.97;;
35981;SDS011;22058;0.000;0.000;2023-06-26T05:16:05;5.70;;;3.53;;
35981;SDS011;22058;0.000;0.000;2023-06-26T05:18:34;5.72;;;3.20;;
35981;SDS011;22058;0.000;0.000;2023-06-26T05:21:00;8.43;;;3.80;;
35981;SDS011;22058;0.000;0.000;2023-06-26T05:23:26;4.55;;;3.95;;
35981;SDS011;22058;0.000;0.000;2023-06-26T05:25:52;6.53;;;3.58;;
35981;SDS011;22058;0.000;0.000;2023-06-26T05:28:19;3.47;;;3.22;;
35981;SDS011;22058;0.000;0.000;2023-06-26T05:30:45;5.90;;;3.85;;
35981;SDS011;22058;0.000;0.000;2023-06-26T05:33:12;3.83;;;3.45;;
35981;SDS011;22058;0.000;0.000;2023-06-26T05:35:40;4.60;;;3.10;;
35981;SDS011;22058;0.000;0.000;2023-06-26T05:38:06;3.60;;;3.30;;
35981;SDS011;22058;0.000;0.000;2023-06-26T05:40:33;4.57;;;3.65;;
35981;SDS011;22058;0.000;0.000;2023-06-26T05:42:59;4.50;;;3.67;;
35981;SDS011;22058;0.000;0.000;2023-06-26T05:45:25;7.72;;;3.35;;
35981;SDS011;22058;0.000;0.000;2023-06-26T05:47:52;4.82;;;3.53;;
35981;SDS011;22058;0.000;0.000;2023-06-26T05:50:18;3.83;;;3.40;;
35981;SDS011;22058;0.000;0.000;2023-06-26T05:52:45;5.80;;;3.78;;
35981;SDS011;22058;0.000;0.000;2023-06-26T05:55:11;5.55;;;3.20;;
35981;SDS011;22058;0.000;0.000;2023-06-26T05:57:37;4.22;;;3.92;;
35981;SDS011;22058;0.000;0.000;2023-06-26T06:00:05;3.72;;;3.40;;
35981;SDS011;22058;0.000;0.000;2023-06-26T06:02:35;4.43;;;3.43;;
35981;SDS011;22058;0.000;0.000;2023-06-26T06:05:01;3.60;;;3.40;;
35981;SDS011;22058;0.000;0.000;2023-06-26T06:07:27;4.13;;;3.63;;
35981;SDS011;22058;0.000;0.000;2023-06-26T06:09:54;3.40;;;3.20;;
35981;SDS011;22058;0.000;0.000;2023-06-26T06:12:20;4.47;;;2.88;;
35981;SDS011;22058;0.000;0.000;2023-06-26T06:14:46;3.88;;;3.58;;
35981;SDS011;22058;0.000;0.000;2023-06-26T06:17:12;4.40;;;4.07;;
35981;SDS011;22058;0.000;0.000;2023-06-26T06:19:38;4.32;;;3.40;;
35981;SDS011;22058;0.000;0.000;2023-06-26T06:22:04;6.50;;;3.33;;
35981;SDS011;22058;0.000;0.000;2023-06-26T06:24:30;5.00;;;4.20;;
35981;SDS011;22058;0.000;0.000;2023-06-26T06:26:56;5.05;;;3.50;;
35981;SDS011;22058;0.000;0.000;2023-06-26T06:29:22;5.65;;;3.75;;
35981;SDS011;22058;0.000;0.000;2023-06-26T06:31:48;4.95;;;3.42;;
35981;SDS011;22058;0.000;0.000;2023-06-26T06:34:15;3.90;;;3.58;;
35981;SDS011;22058;0.000;0.000;2023-06-26T06:36:41;9.65;;;3.85;;
35981;SDS011;22058;0.000;0.000;2023-06-26T06:39:07;11.40;;;4.53;;
35981;SDS011;22058;0.000;0.000;2023-06-26T06:41:34;5.85;;;4.60;;
35981;SDS011;22058;0.000;0.000;2023-06-26T06:44:00;8.13;;;4.35;;
35981;SDS011;22058;0.000;0.000;2023-06-26T06:46:26;6.10;;;3.65;;
35981;SDS011;22058;0.000;0.000;2023-06-26T06:48:52;4.38;;;3.58;;
35981;SDS011;22058;0.000;0.000;2023-06-26T06:51:18;5.65;;;4.07;;
35981;SDS011;22058;0.000;0.000;2023-06-26T06:53:44;5.95;;;3.75;;
35981;SDS011;22058;0.000;0.000;2023-06-26T06:56:10;4.10;;;3.53;;
35981;SDS011;22058;0.000;0.000;2023-06-26T06:58:37;5.05;;;3.40;;
35981;SDS011;22058;0.000;0.000;2023-06-26T07:01:03;7.25;;;3.38;;
35981;SDS011;22058;0.000;0.000;2023-06-26T07:03:29;4.10;;;3.63;;
35981;SDS011;22058;0.000;0.000;2023-06-26T07:05:55;3.97;;;3.53;;
35981;SDS011;22058;0.000;0.000;2023-06-26T07:08:21;8.13;;;4.15;;
35981;SDS011;22058;0.000;0.000;2023-06-26T07:10:47;4.75;;;3.75;;
35981;SDS011;22058;0.000;0.000;2023-06-26T07:13:14;5.53;;;3.55;;
35981;SDS011;22058;0.000;0.000;2023-06-26T07:15:40;4.07;;;3.47;;
35981;SDS011;22058;0.000;0.000;2023-06-26T07:18:06;4.22;;;3.75;;
35981;SDS011;22058;0.000;0.000;2023-06-26T07:20:32;8.40;;;3.55;;
35981;SDS011;22058;0.000;0.000;2023-06-26T07:22:58;5.40;;;3.40;;
35981;SDS011;22058;0.000;0.000;2023-06-26T07:25:24;4.85;;;3.20;;
35981;SDS011;22058;0.000;0.000;2023-06-26T07:27:50;3.60;;;3.30;;
35981;SDS011;22058;0.000;0.000;2023-06-26T07:30:16;4.00;;;3.70;;
35981;SDS011;22058;0.000;0.000;2023-06-26T07:32:44;7.68;;;3.97;;
35981;SDS011;22058;0.000;0.000;2023-06-26T07:35:10;6.05;;;4.15;;
35981;SDS011;22058;0.000;0.000;2023-06-26T07:37:36;6.13;;;3.90;;
35981;SDS011;22058;0.000;0.000;2023-06-26T07:40:03;6.00;;;3.45;;
35981;SDS011;22058;0.000;0.000;2023-06-26T07:42:29;9.60;;;4.28;;
35981;SDS011;22058;0.000;0.000;2023-06-26T07:44:55;4.75;;;4.35;;
35981;SDS011;22058;0.000;0.000;2023-06-26T07:47:21;10.27;;;4.00;;
35981;SDS011;22058;0.000;0.000;2023-06-26T07:49:47;9.68;;;4.28;;
35981;SDS011;22058;0.000;0.000;2023-06-26T07:52:14;6.63;;;4.20;;
35981;SDS011;22058;0.000;0.000;2023-06-26T07:54:41;12.07;;;3.72;;
35981;SDS011;22058;0.000;0.000;2023-06-26T07:57:07;9.38;;;4.65;;
35981;SDS011;22058;0.000;0.000;2023-06-26T07:59:33;5.22;;;3.90;;
35981;SDS011;22058;0.000;0.000;2023-06-26T08:02:00;8.82;;;3.60;;
35981;SDS011;22058;0.000;0.000;2023-06-26T08:04:27;7.68;;;4.90;;
35981;SDS011;22058;0.000;0.000;2023-06-26T08:06:55;4.15;;;3.75;;
35981;SDS011;22058;0.000;0.000;2023-06-26T08:09:22;8.25;;;4.05;;
35981;SDS011;22058;0.000;0.000;2023-06-26T08:11:49;3.75;;;3.45;;
35981;SDS011;22058;0.000;0.000;2023-06-26T08:14:15;5.60;;;3.90;;
35981;SDS011;22058;0.000;0.000;2023-06-26T08:16:42;7.68;;;4.03;;
35981;SDS011;22058;0.000;0.000;2023-06-26T08:19:09;5.13;;;4.18;;
35981;SDS011;22058;0.000;0.000;2023-06-26T08:21:35;3.75;;;3.45;;
35981;SDS011;22058;0.000;0.000;2023-06-26T08:24:01;4.30;;;3.83;;
35981;SDS011;22058;0.000;0.000;2023-06-26T08:26:28;8.02;;;5.22;;
35981;SDS011;22058;0.000;0.000;2023-06-26T08:28:54;6.18;;;3.88;;
35981;SDS011;22058;0.000;0.000;2023-06-26T08:31:20;5.50;;;4.57;;
35981;SDS011;22058;0.000;0.000;2023-06-26T08:33:47;11.75;;;4.28;;
35981;SDS011;22058;0.000;0.000;2023-06-26T08:36:13;7.93;;;4.80;;
35981;SDS011;22058;0.000;0.000;2023-06-26T08:38:39;7.32;;;5.18;;
35981;SDS011;22058;0.000;0.000;2023-06-26T08:41:06;7.15;;;4.97;;
35981;SDS011;22058;0.000;0.000;2023-06-26T08:43:32;7.60;;;4.47;;
35981;SDS011;22058;0.000;0.000;2023-06-26T08:45:59;10.88;;;5.00;;
35981;SDS011;22058;0.000;0.000;2023-06-26T08:48:25;7.22;;;4.70;;
35981;SDS011;22058;0.000;0.000;2023-06-26T08:50:52;6.53;;;5.13;;
35981;SDS011;22058;0.000;0.000;2023-06-26T08:53:21;5.38;;;4.85;;
35981;SDS011;22058;0.000;0.000;2023-06-26T08:55:49;10.13;;;4.15;;
35981;SDS011;22058;0.000;0.000;2023-06-26T08:58:17;7.75;;;5.20;;
35981;SDS011;22058;0.000;0.000;2023-06-26T09:00:44;10.05;;;4.63;;
35981;SDS011;22058;0.000;0.000;2023-06-26T09:03:10;5.05;;;4.07;;
35981;SDS011;22058;0.000;0.000;2023-06-26T09:05:36;8.70;;;4.47;;
35981;SDS011;22058;0.000;0.000;2023-06-26T09:08:02;5.22;;;4.68;;
35981;SDS011;22058;0.000;0.000;2023-06-26T09:10:28;10.88;;;4.45;;
35981;SDS011;22058;0.000;0.000;2023-06-26T09:12:57;10.50;;;4.38;;
35981;SDS011;22058;0.000;0.000;2023-06-26T09:15:23;11.40;;;5.43;;
35981;SDS011;22058;0.000;0.000;2023-06-26T09:17:50;16.27;;;5.60;;
35981;SDS011;22058;0.000;0.000;2023-06-26T09:20:16;11.40;;;5.35;;
35981;SDS011;22058;0.000;0.000;2023-06-26T09:22:43;11.10;;;4.80;;
35981;SDS011;22058;0.000;0.000;2023-06-26T09:27:39;10.57;;;4.40;;
35981;SDS011;22058;0.000;0.000;2023-06-26T09:30:05;4.38;;;3.95;;
35981;SDS011;22058;0.000;0.000;2023-06-26T09:32:35;6.00;;;4.10;;
35981;SDS011;22058;0.000;0.000;2023-06-26T09:35:02;10.73;;;4.32;;
35981;SDS011;22058;0.000;0.000;2023-06-26T09:37:29;8.00;;;4.55;;
35981;SDS011;22058;0.000;0.000;2023-06-26T09:39:55;5.60;;;3.55;;
35981;SDS011;22058;0.000;0.000;2023-06-26T09:42:22;8.38;;;3.95;;
35981;SDS011;22058;0.000;0.000;2023-06-26T09:44:49;12.30;;;4.28;;
35981;SDS011;22058;0.000;0.000;2023-06-26T09:47:16;9.82;;;4.72;;
35981;SDS011;22058;0.000;0.000;2023-06-26T09:49:42;12.25;;;4.93;;
35981;SDS011;22058;0.000;0.000;2023-06-26T09:52:09;9.73;;;4.10;;
35981;SDS011;22058;0.000;0.000;2023-06-26T09:54:35;7.65;;;4.65;;
35981;SDS011;22058;0.000;0.000;2023-06-26T09:57:08;9.93;;;5.30;;
35981;SDS011;22058;0.000;0.000;2023-06-26T09:59:34;13.00;;;4.28;;
35981;SDS011;22058;0.000;0.000;2023-06-26T10:02:01;7.22;;;4.38;;
35981;SDS011;22058;0.000;0.000;2023-06-26T10:04:27;5.45;;;4.35;;
35981;SDS011;22058;0.000;0.000;2023-06-26T10:06:57;9.27;;;4.82;;
35981;SDS011;22058;0.000;0.000;2023-06-26T10:09:23;20.73;;;4.97;;
35981;SDS011;22058;0.000;0.000;2023-06-26T10:11:54;6.63;;;4.40;;
35981;SDS011;22058;0.000;0.000;2023-06-26T10:14:21;9.88;;;4.72;;
35981;SDS011;22058;0.000;0.000;2023-06-26T10:16:48;12.02;;;4.57;;
35981;SDS011;22058;0.000;0.000;2023-06-26T10:19:15;10.98;;;5.15;;
35981;SDS011;22058;0.000;0.000;2023-06-26T10:21:44;13.43;;;4.97;;
35981;SDS011;22058;0.000;0.000;2023-06-26T10:24:10;8.07;;;4.10;;
35981;SDS011;22058;0.000;0.000;2023-06-26T10:26:41;6.93;;;4.38;;
35981;SDS011;22058;0.000;0.000;2023-06-26T10:29:08;12.32;;;5.25;;
35981;SDS011;22058;0.000;0.000;2023-06-26T10:31:35;9.15;;;5.20;;
35981;SDS011;22058;0.000;0.000;2023-06-26T10:34:01;10.65;;;5.28;;
35981;SDS011;22058;0.000;0.000;2023-06-26T10:36:30;4.82;;;4.32;;
35981;SDS011;22058;0.000;0.000;2023-06-26T10:38:56;7.80;;;4.93;;
35981;SDS011;22058;0.000;0.000;2023-06-26T10:41:23;11.18;;;4.80;;
35981;SDS011;22058;0.000;0.000;2023-06-26T10:43:50;9.93;;;5.30;;
35981;SDS011;22058;0.000;0.000;2023-06-26T10:46:17;7.85;;;5.10;;
35981;SDS011;22058;0.000;0.000;2023-06-26T10:48:55;12.90;;;5.63;;
35981;SDS011;22058;0.000;0.000;2023-06-26T10:51:22;13.40;;;5.22;;
35981;SDS011;22058;0.000;0.000;2023-06-26T10:53:53;8.13;;;4.97;;
35981;SDS011;22058;0.000;0.000;2023-06-26T10:56:19;8.75;;;4.30;;
35981;SDS011;22058;0.000;0.000;2023-06-26T10:58:45;12.70;;;5.40;;
35981;SDS011;22058;0.000;0.000;2023-06-26T11:03:39;9.50;;;4.45;;
35981;SDS011;22058;0.000;0.000;2023-06-26T11:06:08;9.52;;;4.50;;
35981;SDS011;22058;0.000;0.000;2023-06-26T11:08:54;17.33;;;6.53;;
35981;SDS011;22058;0.000;0.000;2023-06-26T11:11:21;5.82;;;4.40;;
35981;SDS011;22058;0.000;0.000;2023-06-26T11:13:47;7.22;;;4.38;;
35981;SDS011;22058;0.000;0.000;2023-06-26T11:16:14;13.05;;;5.25;;
35981;SDS011;22058;0.000;0.000;2023-06-26T11:18:41;9.55;;;4.90;;
35981;SDS011;22058;0.000;0.000;2023-06-26T11:21:08;8.38;;;5.53;;
35981;SDS011;22058;0.000;0.000;2023-06-26T11:23:35;10.43;;;4.85;;
35981;SDS011;22058;0.000;0.000;2023-06-26T11:26:18;15.07;;;4.78;;
35981;SDS011;22058;0.000;0.000;2023-06-26T11:28:50;9.52;;;5.30;;
35981;SDS011;22058;0.000;0.000;2023-06-26T11:31:32;12.60;;;6.00;;
35981;SDS011;22058;0.000;0.000;2023-06-26T11:33:59;13.73;;;5.45;;
35981;SDS011;22058;0.000;0.000;2023-06-26T11:36:26;13.65;;;5.38;;
35981;SDS011;22058;0.000;0.000;2023-06-26T11:39:01;10.18;;;5.18;;
35981;SDS011;22058;0.000;0.000;2023-06-26T11:41:28;16.05;;;6.10;;
35981;SDS011;22058;0.000;0.000;2023-06-26T11:43:55;16.33;;;5.30;;
35981;SDS011;22058;0.000;0.000;2023-06-26T11:46:22;8.90;;;5.55;;
35981;SDS011;22058;0.000;0.000;2023-06-26T11:48:48;24.75;;;5.78;;
35981;SDS011;22058;0.000;0.000;2023-06-26T11:51:15;9.88;;;4.30;;
35981;SDS011;22058;0.000;0.000;2023-06-26T11:53:41;13.38;;;5.10;;
35981;SDS011;22058;0.000;0.000;2023-06-26T11:56:11;13.55;;;4.78;;
35981;SDS011;22058;0.000;0.000;2023-06-26T11:58:57;9.88;;;4.68;;
35981;SDS011;22058;0.000;0.000;2023-06-26T12:01:25;8.23;;;5.03;;
35981;SDS011;22058;0.000;0.000;2023-06-26T12:03:54;9.93;;;5.15;;
35981;SDS011;22058;0.000;0.000;2023-06-26T12:06:20;11.93;;;4.82;;
35981;SDS011;22058;0.000;0.000;2023-06-26T12:08:46;13.30;;;6.22;;
35981;SDS011;22058;0.000;0.000;2023-06-26T12:11:13;14.30;;;5.03;;
35981;SDS011;22058;0.000;0.000;2023-06-26T12:13:39;12.10;;;4.57;;
35981;SDS011;22058;0.000;0.000;2023-06-26T12:16:05;11.68;;;4.82;;
35981;SDS011;22058;0.000;0.000;2023-06-26T12:18:35;15.18;;;5.28;;
35981;SDS011;22058;0.000;0.000;2023-06-26T12:21:01;11.52;;;5.00;;
35981;SDS011;22058;0.000;0.000;2023-06-26T12:23:38;12.13;;;4.82;;
35981;SDS011;22058;0.000;0.000;2023-06-26T12:26:19;11.35;;;5.63;;
35981;SDS011;22058;0.000;0.000;2023-06-26T12:28:46;15.32;;;4.50;;
35981;SDS011;22058;0.000;0.000;2023-06-26T12:31:15;14.45;;;6.20;;
35981;SDS011;22058;0.000;0.000;2023-06-26T12:33:42;12.27;;;5.38;;
35981;SDS011;22058;0.000;0.000;2023-06-26T12:36:12;13.10;;;5.85;;
35981;SDS011;22058;0.000;0.000;2023-06-26T12:38:38;11.55;;;5.07;;
35981;SDS011;22058;0.000;0.000;2023-06-26T12:41:05;14.45;;;5.65;;
35981;SDS011;22058;0.000;0.000;2023-06-26T12:43:31;8.60;;;5.15;;
35981;SDS011;22058;0.000;0.000;2023-06-26T12:45:57;12.75;;;4.88;;
35981;SDS011;22058;0.000;0.000;2023-06-26T12:48:36;11.60;;;5.28;;
35981;SDS011;22058;0.000;0.000;2023-06-26T12:51:14;8.85;;;5.57;;
35981;SDS011;22058;0.000;0.000;2023-06-26T12:53:41;7.68;;;4.70;;
35981;SDS011;22058;0.000;0.000;2023-06-26T12:56:08;10.70;;;4.70;;
35981;SDS011;22058;0.000;0.000;2023-06-26T12:58:34;10.88;;;5.25;;
35981;SDS011;22058;0.000;0.000;2023-06-26T13:01:05;10.57;;;5.68;;
35981;SDS011;22058;0.000;0.000;2023-06-26T13:03:40;16.10;;;4.03;;
35981;SDS011;22058;0.000;0.000;2023-06-26T13:06:06;13.55;;;5.30;;
35981;SDS011;22058;0.000;0.000;2023-06-26T13:08:33;13.57;;;4.50;;
35981;SDS011;22058;0.000;0.000;2023-06-26T13:10:59;16.33;;;4.35;;
35981;SDS011;22058;0.000;0.000;2023-06-26T13:13:25;11.60;;;4.25;;
35981;SDS011;22058;0.000;0.000;2023-06-26T13:15:52;12.40;;;4.85;;
35981;SDS011;22058;0.000;0.000;2023-06-26T13:18:18;12.23;;;4.75;;
35981;SDS011;22058;0.000;0.000;2023-06-26T13:20:44;12.02;;;5.15;;
35981;SDS011;22058;0.000;0.000;2023-06-26T13:23:11;9.57;;;4.63;;
35981;SDS011;22058;0.000;0.000;2023-06-26T13:25:37;9.10;;;4.47;;
35981;SDS011;22058;0.000;0.000;2023-06-26T13:28:03;8.95;;;4.40;;
35981;SDS011;22058;0.000;0.000;2023-06-26T13:30:29;10.48;;;5.65;;
35981;SDS011;22058;0.000;0.000;2023-06-26T13:32:56;6.68;;;4.82;;
35981;SDS011;22058;0.000;0.000;2023-06-26T13:35:22;8.90;;;4.30;;
35981;SDS011;22058;0.000;0.000;2023-06-26T13:37:48;8.82;;;3.92;;
35981;SDS011;22058;0.000;0.000;2023-06-26T13:40:14;4.22;;;3.67;;
35981;SDS011;22058;0.000;0.000;2023-06-26T13:42:40;6.30;;;4.32;;
35981;SDS011;22058;0.000;0.000;2023-06-26T13:45:07;10.23;;;4.35;;
35981;SDS011;22058;0.000;0.000;2023-06-26T13:47:33;9.80;;;4.80;;
35981;SDS011;22058;0.000;0.000;2023-06-26T13:49:59;6.97;;;4.70;;
35981;SDS011;22058;0.000;0.000;2023-06-26T13:52:26;6.13;;;4.13;;
35981;SDS011;22058;0.000;0.000;2023-06-26T13:54:52;12.45;;;5.03;;
35981;SDS011;22058;0.000;0.000;2023-06-26T13:57:18;10.55;;;5.05;;
35981;SDS011;22058;0.000;0.000;2023-06-26T13:59:47;12.65;;;5.00;;
35981;SDS011;22058;0.000;0.000;2023-06-26T14:02:13;11.82;;;4.80;;
35981;SDS011;22058;0.000;0.000;2023-06-26T14:04:39;11.10;;;4.60;;
35981;SDS011;22058;0.000;0.000;2023-06-26T14:07:06;7.72;;;3.90;;
35981;SDS011;22058;0.000;0.000;2023-06-26T14:09:32;10.13;;;5.63;;
35981;SDS011;22058;0.000;0.000;2023-06-26T14:11:58;16.63;;;5.00;;
35981;SDS011;22058;0.000;0.000;2023-06-26T14:14:24;15.13;;;4.55;;
35981;SDS011;22058;0.000;0.000;2023-06-26T14:16:51;13.27;;;5.22;;
35981;SDS011;22058;0.000;0.000;2023-06-26T14:19:17;13.23;;;5.75;;
35981;SDS011;22058;0.000;0.000;2023-06-26T14:21:43;10.43;;;4.72;;
35981;SDS011;22058;0.000;0.000;2023-06-26T14:24:09;12.55;;;5.40;;
35981;SDS011;22058;0.000;0.000;2023-06-26T14:26:35;8.45;;;4.82;;
35981;SDS011;22058;0.000;0.000;2023-06-26T14:29:02;14.30;;;5.40;;
35981;SDS011;22058;0.000;0.000;2023-06-26T14:31:28;9.70;;;4.80;;
35981;SDS011;22058;0.000;0.000;2023-06-26T14:33:54;13.02;;;5.22;;
35981;SDS011;22058;0.000;0.000;2023-06-26T14:36:20;11.55;;;5.05;;
35981;SDS011;22058;0.000;0.000;2023-06-26T14:38:46;13.93;;;5.13;;
35981;SDS011;22058;0.000;0.000;2023-06-26T14:41:12;13.43;;;4.85;;
35981;SDS011;22058;0.000;0.000;2023-06-26T14:43:39;8.68;;;4.95;;
35981;SDS011;22058;0.000;0.000;2023-06-26T14:46:05;5.72;;;5.15;;
35981;SDS011;22058;0.000;0.000;2023-06-26T14:48:31;8.82;;;5.15;;
35981;SDS011;22058;0.000;0.000;2023-06-26T14:50:57;13.88;;;4.50;;
35981;SDS011;22058;0.000;0.000;2023-06-26T14:53:25;12.52;;;4.47;;
35981;SDS011;22058;0.000;0.000;2023-06-26T14:55:51;10.15;;;5.32;;
35981;SDS011;22058;0.000;0.000;2023-06-26T14:58:17;7.25;;;4.10;;
35981;SDS011;22058;0.000;0.000;2023-06-26T15:00:43;12.57;;;5.78;;
35981;SDS011;22058;0.000;0.000;2023-06-26T15:03:09;11.90;;;5.68;;
35981;SDS011;22058;0.000;0.000;2023-06-26T15:05:35;11.73;;;5.75;;
35981;SDS011;22058;0.000;0.000;2023-06-26T15:08:02;10.95;;;4.97;;
35981;SDS011;22058;0.000;0.000;2023-06-26T15:10:28;12.52;;;5.30;;